Time;durP1;ratioP1;P1;durP2;ratioP2;P2;SDS_P1;SDS_P2;PMS_P1;PMS_P2;Temp;Humidity;BMP_temperature;BMP_pressure;BME280_temperature;BME280_humidity;BME280_pressure;Samples;Min_cycle;Max_cycle;Signal;HPM_P1;HPM_P2
2022/10/14 00:00:39;;;;;;;14.80;7.32;;;;;;;24.86;27.87;98476.50;5111571;28;20059;-79
2022/10/14 00:03:06;;;;;;;11.88;7.32;;;;;;;25.85;26.82;98472.47;5104931;28;20088;-79
2022/10/14 00:05:32;;;;;;;10.50;7.25;;;;;;;26.87;25.04;98469.16;5109162;28;20039;-79
2022/10/14 00:07:58;;;;;;;12.00;8.05;;;;;;;27.59;23.91;98463.09;5111953;28;20036;-79
2022/10/14 00:10:24;;;;;;;12.55;7.47;;;;;;;27.54;23.46;98455.19;5103345;27;20487;-79
2022/10/14 00:12:50;;;;;;;8.30;6.22;;;;;;;27.60;23.31;98459.84;5106435;28;20036;-79
2022/10/14 00:15:17;;;;;;;9.57;6.72;;;;;;;27.88;22.95;98464.59;5111264;28;20034;-79
2022/10/14 00:17:43;;;;;;;9.68;7.18;;;;;;;27.93;22.74;98460.44;5113531;27;20040;-79
2022/10/14 00:20:10;;;;;;;10.93;7.35;;;;;;;27.68;23.57;98454.78;5111364;28;20057;-79
2022/10/14 00:22:36;;;;;;;8.82;6.22;;;;;;;26.88;24.69;98455.84;5111840;28;20044;-79
2022/10/14 00:25:02;;;;;;;9.18;6.70;;;;;;;27.27;24.34;98456.34;5114312;28;20024;-79
2022/10/14 00:27:28;;;;;;;9.43;7.22;;;;;;;27.40;24.69;98457.19;5102954;28;20479;-79
2022/10/14 00:29:54;;;;;;;12.70;6.95;;;;;;;27.45;24.38;98452.22;5109464;28;20039;-79
2022/10/14 00:32:20;;;;;;;10.07;7.30;;;;;;;27.57;24.27;98449.44;5114523;27;20042;-79
2022/10/14 00:34:46;;;;;;;10.55;6.43;;;;;;;27.75;24.11;98449.69;5112144;28;20040;-78
2022/10/14 00:37:12;;;;;;;10.20;7.28;;;;;;;28.00;23.68;98449.75;5107003;28;20102;-78
2022/10/14 00:39:38;;;;;;;7.90;6.18;;;;;;;28.28;23.24;98444.41;5109259;28;20032;-78
2022/10/14 00:42:04;;;;;;;9.65;7.03;;;;;;;27.94;23.45;98451.50;5102709;28;20039;-79
2022/10/14 00:44:30;;;;;;;9.25;5.97;;;;;;;28.08;23.59;98451.06;5100035;28;20040;-78
2022/10/14 00:46:56;;;;;;;10.88;6.47;;;;;;;28.40;23.17;98447.19;5104803;28;20035;-79
2022/10/14 00:49:28;;;;;;;10.50;5.72;;;;;;;28.42;23.27;98438.28;5097070;28;20036;-79
2022/10/14 00:52:09;;;;;;;8.90;5.95;;;;;;;28.66;23.03;98440.25;5107561;28;20031;-79
2022/10/14 00:54:39;;;;;;;7.93;5.55;;;;;;;28.60;22.81;98425.16;5102155;27;20123;-78
2022/10/14 00:57:06;;;;;;;;;;;;;;;28.86;22.51;98430.69;5106370;28;20065;-79
2022/10/14 00:59:33;;;;;;;9.73;6.43;;;;;;;28.92;22.14;98438.13;5105309;28;20049;-79
2022/10/14 01:01:59;;;;;;;13.73;5.90;;;;;;;28.62;22.33;98431.13;5101339;28;20027;-79
2022/10/14 01:04:26;;;;;;;10.88;5.97;;;;;;;28.25;22.97;98437.63;5107733;28;20505;-79
2022/10/14 01:07:08;;;;;;;9.38;5.88;;;;;;;28.33;22.89;98438.97;5105406;28;20028;-79
2022/10/14 01:09:42;;;;;;;8.75;5.75;;;;;;;28.40;22.84;98427.41;5110416;28;20364;-79
2022/10/14 01:12:17;;;;;;;10.15;5.93;;;;;;;28.02;23.56;98433.13;5103328;28;20046;-79
2022/10/14 01:15:16;;;;;;;6.70;5.28;;;;;;;28.09;23.43;98429.28;5099632;28;20483;-79
2022/10/14 01:18:18;;;;;;;10.20;5.38;;;;;;;28.47;22.89;98429.22;5101545;28;20384;-78
2022/10/14 01:21:06;;;;;;;8.05;5.05;;;;;;;28.70;22.43;98431.66;5092029;28;20035;-79
2022/10/14 01:23:37;;;;;;;8.02;5.78;;;;;;;28.31;23.29;98432.97;5100671;28;20038;-79
2022/10/14 01:26:18;;;;;;;;;;;;;;;28.36;22.89;98426.75;5108962;28;20065;-79
2022/10/14 01:29:02;;;;;;;8.38;5.55;;;;;;;27.88;23.73;98432.75;5105830;28;19916;-79
2022/10/14 01:31:34;;;;;;;6.47;5.18;;;;;;;28.28;23.37;98431.06;5109246;28;20036;-79
2022/10/14 01:34:06;;;;;;;8.00;4.85;;;;;;;28.79;22.55;98428.13;5105698;28;20078;-79
2022/10/14 01:36:43;;;;;;;7.43;5.30;;;;;;;29.20;21.83;98422.97;5108129;28;20464;-78
2022/10/14 01:39:20;;;;;;;7.10;4.60;;;;;;;29.50;21.22;98417.84;5105712;28;20024;-78
2022/10/14 01:41:54;;;;;;;6.60;4.90;;;;;;;29.33;21.13;98415.22;5110889;28;20074;-78
2022/10/14 01:44:22;;;;;;;6.63;4.07;;;;;;;29.31;21.25;98416.94;5099684;28;20114;-78
2022/10/14 01:46:53;;;;;;;8.63;5.07;;;;;;;29.06;21.52;98409.34;5107780;28;20036;-78
2022/10/14 01:49:26;;;;;;;6.80;5.10;;;;;;;28.81;22.00;98412.28;5100734;28;20028;-78
2022/10/14 01:52:00;;;;;;;7.70;4.78;;;;;;;29.09;21.65;98413.28;5107687;28;20035;-78
2022/10/14 01:54:31;;;;;;;9.10;5.55;;;;;;;29.29;21.50;98416.63;5111233;28;20047;-78
2022/10/14 01:57:02;;;;;;;6.60;4.55;;;;;;;29.47;21.14;98411.06;5108638;28;20031;-78
2022/10/14 01:59:30;;;;;;;6.05;4.72;;;;;;;29.51;20.98;98419.41;5094753;28;20038;-78
2022/10/14 02:01:56;;;;;;;6.63;4.60;;;;;;;29.56;21.03;98407.47;5102857;28;20131;-79
2022/10/14 02:04:22;;;;;;;7.10;4.97;;;;;;;29.38;21.15;98411.00;5112503;28;20043;-78
2022/10/14 02:07:13;;;;;;;9.85;4.80;;;;;;;29.47;21.29;98413.09;5105696;28;20050;-79
2022/10/14 02:10:05;;;;;;;6.65;4.65;;;;;;;29.37;21.16;98404.56;5110716;28;20033;-79
2022/10/14 02:12:57;;;;;;;7.40;4.88;;;;;;;28.89;21.65;98399.50;5101512;28;20028;-79
2022/10/14 02:15:39;;;;;;;6.57;4.50;;;;;;;28.88;21.85;98397.91;5099649;28;20524;-78
2022/10/14 02:18:16;;;;;;;5.55;4.07;;;;;;;28.98;22.01;98399.56;5102098;28;20031;-78
2022/10/14 02:20:54;;;;;;;6.07;4.50;;;;;;;29.13;21.55;98405.44;5111692;28;20036;-78
2022/10/14 02:23:28;;;;;;;5.75;4.18;;;;;;;29.10;21.71;98401.50;5112219;28;20032;-78
2022/10/14 02:25:55;;;;;;;6.25;4.40;;;;;;;28.95;22.08;98394.03;5108796;28;20028;-79
2022/10/14 02:28:24;;;;;;;7.68;4.80;;;;;;;29.01;22.16;98401.44;5108330;28;20068;-79
2022/10/14 02:30:55;;;;;;;6.35;4.88;;;;;;;29.19;21.88;98390.31;5108339;28;20024;-79
2022/10/14 02:33:27;;;;;;;6.05;4.10;;;;;;;29.17;22.02;98387.09;5109161;28;20044;-79
2022/10/14 02:35:54;;;;;;;6.78;4.60;;;;;;;29.28;22.13;98383.91;5101587;28;20043;-79
2022/10/14 02:38:21;;;;;;;9.40;5.25;;;;;;;29.42;21.86;98387.00;5096252;28;20032;-78
2022/10/14 02:40:49;;;;;;;7.25;4.57;;;;;;;29.62;21.58;98389.44;5097109;28;20058;-78
2022/10/14 02:43:16;;;;;;;5.20;4.40;;;;;;;29.67;21.32;98383.16;5100662;28;20065;-78
2022/10/14 02:45:43;;;;;;;7.07;4.75;;;;;;;29.50;21.89;98390.31;5105452;28;20058;-79
2022/10/14 02:48:10;;;;;;;5.72;4.78;;;;;;;29.14;22.02;98381.59;5102695;28;20505;-79
2022/10/14 02:50:36;;;;;;;7.00;4.20;;;;;;;29.01;22.12;98378.81;5103779;28;20032;-79
2022/10/14 02:53:03;;;;;;;5.07;3.97;;;;;;;28.90;21.93;98383.31;5110963;28;20559;-78
2022/10/14 02:55:29;;;;;;;5.65;4.20;;;;;;;28.67;22.23;98376.84;5107978;28;20028;-78
2022/10/14 02:57:55;;;;;;;4.95;4.32;;;;;;;28.89;22.03;98376.88;5108003;28;20043;-78
2022/10/14 03:00:21;;;;;;;5.47;4.30;;;;;;;29.19;22.02;98381.03;5101187;28;20175;-78
2022/10/14 03:02:47;;;;;;;6.18;4.78;;;;;;;29.09;22.21;98377.31;5104045;28;20035;-78
2022/10/14 03:05:14;;;;;;;6.00;4.68;;;;;;;29.27;21.90;98374.63;5096098;28;20039;-78
2022/10/14 03:07:40;;;;;;;6.38;4.95;;;;;;;29.40;22.13;98372.53;5101942;28;20031;-78
2022/10/14 03:10:06;;;;;;;7.25;5.15;;;;;;;29.35;22.04;98375.94;5095290;28;20046;-78
2022/10/14 03:12:32;;;;;;;8.85;5.20;;;;;;;29.29;22.22;98368.53;5107658;28;20034;-79
2022/10/14 03:14:58;;;;;;;5.50;4.47;;;;;;;29.25;22.24;98374.31;5107656;28;20035;-79
2022/10/14 03:17:24;;;;;;;8.25;5.13;;;;;;;29.30;22.11;98362.41;5100555;28;20034;-78
2022/10/14 03:19:50;;;;;;;6.43;4.38;;;;;;;29.39;22.33;98364.47;5112536;28;20031;-79
2022/10/14 03:22:16;;;;;;;9.40;4.53;;;;;;;29.55;21.89;98371.94;5101721;28;20392;-79
2022/10/14 03:24:42;;;;;;;5.28;4.13;;;;;;;29.65;21.44;98363.03;5104075;28;20411;-78
2022/10/14 03:27:08;;;;;;;6.60;4.55;;;;;;;29.76;21.36;98368.28;5114474;28;20372;-78
2022/10/14 03:29:34;;;;;;;6.88;4.47;;;;;;;29.29;21.68;98365.72;5103982;28;20028;-79
2022/10/14 03:32:00;;;;;;;5.63;3.85;;;;;;;28.95;22.32;98371.41;5103328;28;20035;-79
2022/10/14 03:34:26;;;;;;;6.95;4.30;;;;;;;29.06;22.03;98369.75;5110738;28;20039;-78
2022/10/14 03:36:53;;;;;;;6.47;4.70;;;;;;;28.90;22.31;98369.97;5118256;27;20043;-79
2022/10/14 03:39:19;;;;;;;5.97;4.22;;;;;;;28.97;22.35;98363.25;5114691;28;20047;-79
2022/10/14 03:41:46;;;;;;;8.65;5.22;;;;;;;29.06;22.23;98366.13;5111854;28;20080;-78
2022/10/14 03:44:12;;;;;;;5.68;4.32;;;;;;;29.15;22.49;98366.97;5110387;28;20031;-79
2022/10/14 03:46:38;;;;;;;9.80;5.30;;;;;;;28.91;22.67;98360.25;5112182;28;20035;-78
2022/10/14 03:49:04;;;;;;;6.07;4.68;;;;;;;28.96;22.60;98354.00;5112957;27;20053;-79
2022/10/14 03:51:30;;;;;;;6.47;4.55;;;;;;;28.80;22.67;98354.16;5108389;28;20480;-79
2022/10/14 03:53:56;;;;;;;5.22;4.03;;;;;;;29.05;22.57;98358.91;5107587;28;20085;-78
2022/10/14 03:56:22;;;;;;;7.90;4.75;;;;;;;29.07;22.67;98357.22;5111873;28;20039;-79
2022/10/14 03:58:49;;;;;;;7.38;5.20;;;;;;;29.17;22.57;98349.56;5112789;27;20084;-79
2022/10/14 04:01:15;;;;;;;5.93;4.38;;;;;;;29.39;22.15;98353.16;5111289;28;20031;-80
2022/10/14 04:03:41;;;;;;;5.32;4.82;;;;;;;29.41;22.27;98351.44;5111902;27;20042;-79
2022/10/14 04:06:07;;;;;;;7.88;4.28;;;;;;;29.46;22.20;98350.06;5112820;28;20042;-79
2022/10/14 04:08:34;;;;;;;5.32;4.43;;;;;;;29.42;22.23;98347.38;5102608;28;20077;-78
2022/10/14 04:11:00;;;;;;;6.32;4.63;;;;;;;29.33;22.50;98352.19;5112982;28;20057;-78
2022/10/14 04:13:26;;;;;;;6.50;4.60;;;;;;;29.47;22.26;98354.47;5109244;28;20028;-79
2022/10/14 04:15:52;;;;;;;6.20;4.65;;;;;;;29.67;22.13;98354.88;5101173;28;20036;-79
2022/10/14 04:18:18;;;;;;;7.38;4.15;;;;;;;29.76;22.02;98346.44;5111540;28;20115;-79
2022/10/14 04:20:44;;;;;;;6.82;4.63;;;;;;;29.80;21.90;98346.31;5109683;27;20105;-79
2022/10/14 04:23:10;;;;;;;5.43;4.10;;;;;;;29.87;21.98;98340.34;5116887;27;20059;-79
2022/10/14 04:25:40;;;;;;;6.35;4.07;;;;;;;29.98;21.30;98337.84;5108806;28;20228;-79
2022/10/14 04:28:06;;;;;;;4.68;3.92;;;;;;;30.01;20.99;98336.94;5113999;28;20028;-79
2022/10/14 04:30:32;;;;;;;5.53;4.18;;;;;;;29.99;21.06;98339.44;5111423;28;20055;-78
2022/10/14 04:32:58;;;;;;;4.55;3.72;;;;;;;30.08;21.06;98337.38;5110291;28;20051;-79
2022/10/14 04:35:24;;;;;;;5.75;4.47;;;;;;;29.07;22.03;98339.44;5108455;27;20492;-78
2022/10/14 04:37:50;;;;;;;5.43;4.25;;;;;;;29.10;22.17;98336.47;5112942;28;20032;-79
2022/10/14 04:40:19;;;;;;;7.03;5.47;;;;;;;28.88;22.55;98330.06;5111656;28;20037;-79
2022/10/14 04:42:46;;;;;;;4.80;4.10;;;;;;;28.47;23.16;98336.78;5113320;28;20071;-79
2022/10/14 04:45:12;;;;;;;7.97;4.55;;;;;;;28.82;22.72;98339.59;5112181;28;20032;-78
2022/10/14 04:47:38;;;;;;;4.90;4.22;;;;;;;29.03;22.65;98328.28;5110097;28;20040;-79
2022/10/14 04:50:05;;;;;;;5.22;4.32;;;;;;;28.71;22.78;98332.28;5113164;28;20031;-79
2022/10/14 04:52:31;;;;;;;6.72;4.93;;;;;;;28.98;22.56;98328.09;5109591;28;20096;-79
2022/10/14 04:54:57;;;;;;;4.63;4.15;;;;;;;29.02;22.71;98329.53;5108763;28;20394;-79
2022/10/14 04:57:23;;;;;;;4.35;3.35;;;;;;;29.06;22.32;98332.19;5110999;28;20035;-78
2022/10/14 04:59:49;;;;;;;6.50;3.85;;;;;;;29.09;22.63;98325.63;5111040;28;20028;-79
2022/10/14 05:02:15;;;;;;;5.05;4.38;;;;;;;29.31;22.24;98329.25;5111310;28;20059;-79
2022/10/14 05:04:41;;;;;;;5.90;4.07;;;;;;;29.58;22.10;98334.22;5112573;28;20027;-79
2022/10/14 05:07:07;;;;;;;5.40;4.13;;;;;;;29.39;22.34;98324.88;5112613;28;20040;-79
2022/10/14 05:09:33;;;;;;;5.10;3.72;;;;;;;29.53;22.10;98326.34;5113667;28;20035;-79
2022/10/14 05:11:59;;;;;;;5.50;3.78;;;;;;;29.63;22.00;98328.75;5108989;28;20083;-79
2022/10/14 05:14:25;;;;;;;6.63;4.05;;;;;;;29.56;22.17;98325.41;5107856;28;20027;-79
2022/10/14 05:16:51;;;;;;;6.60;4.60;;;;;;;28.98;22.70;98323.22;5109494;28;20036;-78
2022/10/14 05:19:17;;;;;;;5.03;3.95;;;;;;;28.92;22.99;98329.91;5109457;28;20030;-78
2022/10/14 05:21:43;;;;;;;5.57;4.07;;;;;;;29.15;22.62;98329.44;5109181;28;20031;-79
2022/10/14 05:24:09;;;;;;;6.20;4.72;;;;;;;29.20;22.57;98326.81;5110326;28;20043;-78
2022/10/14 05:26:35;;;;;;;6.07;4.18;;;;;;;29.46;22.46;98320.97;5112015;28;20036;-78
2022/10/14 05:29:02;;;;;;;5.90;4.07;;;;;;;29.50;22.21;98330.13;5110408;28;20036;-78
2022/10/14 05:31:28;;;;;;;7.20;5.30;;;;;;;29.07;22.74;98330.97;5104353;28;20032;-79
2022/10/14 05:33:54;;;;;;;5.40;4.55;;;;;;;28.82;23.15;98322.63;5101742;28;20050;-78
2022/10/14 05:36:20;;;;;;;10.32;5.15;;;;;;;28.58;23.59;98327.94;5103614;28;20024;-79
2022/10/14 05:38:47;;;;;;;5.80;3.88;;;;;;;28.74;23.58;98328.56;5102812;28;20047;-79
2022/10/14 05:41:13;;;;;;;6.78;4.38;;;;;;;28.82;23.84;98320.63;5124187;27;20027;-79
2022/10/14 05:43:39;;;;;;;10.70;4.65;;;;;;;28.94;23.52;98321.78;5118328;27;20054;-79
2022/10/14 05:46:05;;;;;;;6.22;4.38;;;;;;;29.17;23.27;98326.94;5112632;27;20063;-79
2022/10/14 05:48:32;;;;;;;6.80;4.95;;;;;;;29.22;22.92;98323.56;5106755;28;20036;-79
2022/10/14 05:51:01;;;;;;;5.78;4.47;;;;;;;29.07;23.00;98326.09;5107405;28;20491;-79
2022/10/14 05:53:27;;;;;;;7.45;5.13;;;;;;;29.01;23.30;98325.09;5110806;28;20091;-79
2022/10/14 05:56:04;;;;;;;8.02;4.60;;;;;;;29.27;23.34;98315.22;5112576;28;20024;-79
2022/10/14 05:58:30;;;;;;;5.07;4.07;;;;;;;29.61;22.95;98319.94;5104081;28;20057;-79
2022/10/14 06:01:01;;;;;;;11.38;5.78;;;;;;;29.19;23.72;98313.16;5104768;28;20424;-78
2022/10/14 06:03:27;;;;;;;6.38;4.72;;;;;;;29.31;23.81;98317.94;5104494;28;20512;-79
2022/10/14 06:05:54;;;;;;;5.28;4.15;;;;;;;29.72;23.09;98319.50;5106457;28;20080;-78
2022/10/14 06:08:21;;;;;;;6.97;4.28;;;;;;;29.54;23.36;98322.28;5108351;28;20498;-79
2022/10/14 06:10:47;;;;;;;5.90;5.03;;;;;;;29.10;23.61;98319.50;5107743;28;20398;-78
2022/10/14 06:13:13;;;;;;;5.03;4.45;;;;;;;29.31;23.54;98321.53;5111197;28;20030;-78
2022/10/14 06:15:39;;;;;;;5.88;4.03;;;;;;;29.62;23.19;98318.69;5107760;28;20042;-79
2022/10/14 06:18:05;;;;;;;6.75;4.72;;;;;;;30.00;22.78;98316.31;5110404;28;20016;-78
2022/10/14 06:20:32;;;;;;;6.20;4.63;;;;;;;29.62;23.12;98317.88;5110132;28;20518;-79
2022/10/14 06:22:59;;;;;;;5.60;4.63;;;;;;;29.79;23.54;98311.53;5106388;28;20387;-79
2022/10/14 06:25:25;;;;;;;6.38;4.88;;;;;;;29.99;23.09;98319.63;5105072;28;20491;-79
2022/10/14 06:27:51;;;;;;;6.25;5.07;;;;;;;29.90;23.42;98317.53;5112085;28;20023;-79
2022/10/14 06:30:17;;;;;;;8.15;5.30;;;;;;;29.86;22.82;98316.91;5111300;28;20529;-79
2022/10/14 06:32:43;;;;;;;7.57;5.20;;;;;;;29.76;23.65;98323.78;5110463;28;20036;-79
2022/10/14 06:35:10;;;;;;;6.45;5.40;;;;;;;30.02;24.02;98319.47;5108895;28;20034;-79
2022/10/14 06:37:36;;;;;;;5.53;4.97;;;;;;;30.03;23.63;98323.09;5109075;28;20455;-79
2022/10/14 06:40:02;;;;;;;7.50;5.80;;;;;;;29.73;23.58;98332.41;5107743;28;20032;-79
2022/10/14 06:42:28;;;;;;;7.85;6.05;;;;;;;29.26;24.12;98327.81;5110110;28;20035;-79
2022/10/14 06:44:54;;;;;;;6.28;4.85;;;;;;;29.75;24.24;98322.19;5112452;28;20020;-79
2022/10/14 06:47:21;;;;;;;8.02;6.18;;;;;;;29.47;24.19;98333.88;5113303;28;20028;-79
2022/10/14 06:49:47;;;;;;;5.75;5.10;;;;;;;29.62;23.34;98330.00;5109970;28;20032;-79
2022/10/14 06:52:13;;;;;;;6.20;5.57;;;;;;;28.93;24.81;98329.47;5112690;28;20035;-79
2022/10/14 06:54:39;;;;;;;6.63;5.60;;;;;;;29.65;25.03;98333.94;5112074;28;20119;-79
2022/10/14 06:57:05;;;;;;;7.32;5.35;;;;;;;29.70;24.35;98331.31;5109358;28;20099;-79
2022/10/14 06:59:31;;;;;;;6.45;4.97;;;;;;;29.84;24.10;98330.75;5097939;28;20096;-79
2022/10/14 07:01:57;;;;;;;7.45;5.32;;;;;;;29.51;25.00;98331.69;5103090;28;20040;-79
2022/10/14 07:04:23;;;;;;;6.93;5.40;;;;;;;30.22;23.88;98335.22;5096669;28;20034;-79
2022/10/14 07:06:50;;;;;;;6.03;5.13;;;;;;;29.70;24.07;98327.69;5116359;28;20031;-79
2022/10/14 07:09:16;;;;;;;7.72;4.93;;;;;;;30.11;24.30;98321.50;5108852;28;20491;-79
2022/10/14 07:11:43;;;;;;;10.35;5.45;;;;;;;29.91;23.45;98321.16;5111484;28;20047;-79
2022/10/14 07:14:09;;;;;;;6.10;5.10;;;;;;;30.54;24.08;98321.28;5111827;28;20031;-79
2022/10/14 07:16:35;;;;;;;6.93;4.97;;;;;;;30.29;23.14;98320.75;5113569;28;20086;-79
2022/10/14 07:19:02;;;;;;;5.53;4.40;;;;;;;30.39;23.79;98328.03;5116328;28;20062;-79
2022/10/14 07:21:28;;;;;;;5.45;4.93;;;;;;;30.22;24.19;98323.91;5114581;28;20040;-79
2022/10/14 07:23:54;;;;;;;7.05;5.47;;;;;;;29.58;24.52;98328.56;5111281;28;20040;-79
2022/10/14 07:26:20;;;;;;;6.43;4.82;;;;;;;30.02;25.29;98324.31;5112714;28;20503;-79
2022/10/14 07:28:46;;;;;;;5.00;4.50;;;;;;;28.88;26.16;98327.22;5113759;28;20038;-79
2022/10/14 07:31:12;;;;;;;6.03;5.43;;;;;;;29.26;25.76;98327.03;5111802;28;20064;-79
2022/10/14 07:33:39;;;;;;;6.20;4.63;;;;;;;30.13;24.90;98323.88;5113786;28;20063;-79
2022/10/14 07:36:09;;;;;;;6.13;4.95;;;;;;;30.11;24.86;98323.56;5116586;28;20020;-79
2022/10/14 07:38:35;;;;;;;6.32;5.28;;;;;;;30.66;24.68;98323.16;5110690;28;20059;-79
2022/10/14 07:41:15;;;;;;;9.02;5.88;;;;;;;29.09;25.86;98331.28;5095860;28;20090;-79
2022/10/14 07:43:45;;;;;;;4.90;4.25;;;;;;;29.60;25.42;98326.84;5095776;28;20056;-78
2022/10/14 07:46:12;;;;;;;9.05;4.60;;;;;;;30.34;24.78;98323.75;5110516;28;20031;-79
2022/10/14 07:48:39;;;;;;;5.00;4.47;;;;;;;30.52;24.12;98325.84;5107744;28;20042;-79
2022/10/14 07:51:08;;;;;;;8.98;5.60;;;;;;;30.73;24.36;98331.34;5116009;28;20036;-80
2022/10/14 07:53:36;;;;;;;7.47;5.70;;;;;;;30.43;24.99;98332.31;5115403;28;20387;-79
2022/10/14 07:56:03;;;;;;;5.47;4.60;;;;;;;30.13;25.61;98327.50;5115506;28;20039;-79
2022/10/14 07:58:30;;;;;;;11.63;4.93;;;;;;;30.68;24.26;98322.69;5114558;28;20036;-80
2022/10/14 08:00:57;;;;;;;4.97;4.20;;;;;;;31.65;23.65;98329.13;5113614;28;20496;-80
2022/10/14 08:03:24;;;;;;;6.07;4.53;;;;;;;31.70;23.11;98326.41;5113845;28;20032;-80
2022/10/14 08:05:56;;;;;;;5.85;4.43;;;;;;;31.57;22.90;98317.31;5096005;28;20034;-80
2022/10/14 08:08:23;;;;;;;4.50;4.07;;;;;;;31.51;23.73;98324.91;5108699;28;20038;-80
2022/10/14 08:10:49;;;;;;;4.88;4.30;;;;;;;31.79;22.91;98319.88;5098373;28;20074;-80
2022/10/14 08:13:15;;;;;;;4.95;4.22;;;;;;;32.07;23.34;98330.63;5107207;28;20071;-79
2022/10/14 08:15:42;;;;;;;7.43;3.75;;;;;;;32.27;22.64;98318.66;5108221;28;20088;-79
2022/10/14 08:18:10;;;;;;;6.22;5.13;;;;;;;31.35;23.69;98325.25;5111129;28;20525;-79
2022/10/14 08:20:37;;;;;;;4.88;4.45;;;;;;;30.82;24.27;98321.25;5106566;27;20031;-79
2022/10/14 08:23:03;;;;;;;4.97;4.45;;;;;;;30.58;23.97;98321.09;5105910;28;20108;-79
2022/10/14 08:25:29;;;;;;;7.10;4.60;;;;;;;30.48;25.19;98316.72;5112873;28;20104;-79
2022/10/14 08:27:57;;;;;;;7.68;5.75;;;;;;;29.33;26.63;98324.72;5101394;28;20136;-79
2022/10/14 08:30:24;;;;;;;5.15;4.65;;;;;;;29.68;25.92;98316.84;5111617;28;20031;-80
2022/10/14 08:32:50;;;;;;;5.18;4.65;;;;;;;29.66;25.45;98321.38;5112904;28;20051;-80
2022/10/14 08:35:16;;;;;;;6.53;5.60;;;;;;;29.83;27.34;98317.84;5111175;28;20111;-79
2022/10/14 08:37:42;;;;;;;4.80;4.38;;;;;;;30.23;24.64;98311.28;5106330;28;20032;-80
2022/10/14 08:40:14;;;;;;;4.53;4.13;;;;;;;30.29;26.22;98313.06;5108540;28;20057;-81
2022/10/14 08:43:11;;;;;;;5.65;5.07;;;;;;;30.29;24.42;98313.06;5111779;28;20031;-79
2022/10/14 08:45:45;;;;;;;5.07;4.38;;;;;;;31.06;25.23;98322.97;5112213;28;20499;-79
2022/10/14 08:48:19;;;;;;;6.55;4.88;;;;;;;31.34;24.55;98324.44;5097693;28;20046;-80
2022/10/14 08:50:48;;;;;;;4.65;4.18;;;;;;;31.13;24.14;98325.50;5094609;28;20039;-80
2022/10/14 08:53:20;;;;;;;3.78;3.47;;;;;;;32.32;23.09;98323.69;5112967;28;20031;-79
2022/10/14 08:55:53;;;;;;;3.47;3.08;;;;;;;32.78;23.00;98321.28;5106317;28;20422;-79
2022/10/14 08:58:22;;;;;;;4.75;3.92;;;;;;;32.21;22.91;98314.91;5105653;28;20028;-80
2022/10/14 09:00:51;;;;;;;4.63;4.13;;;;;;;31.79;23.82;98312.16;5114703;28;20023;-80
2022/10/14 09:03:25;;;;;;;3.50;3.20;;;;;;;32.40;23.47;98307.81;5115186;28;20055;-80
2022/10/14 09:06:01;;;;;;;4.93;3.47;;;;;;;32.33;24.55;98307.41;5114145;28;20038;-79
2022/10/14 09:08:37;;;;;;;3.65;3.22;;;;;;;32.63;23.13;98309.06;5113161;28;20556;-78
2022/10/14 09:11:11;;;;;;;3.45;3.15;;;;;;;32.80;22.46;98306.56;5105084;27;20024;-79
2022/10/14 09:13:41;;;;;;;5.50;3.10;;;;;;;33.36;22.35;98307.09;5108132;28;20035;-80
2022/10/14 09:16:16;;;;;;;3.47;3.17;;;;;;;33.84;21.35;98306.81;5111086;28;20039;-79
2022/10/14 09:18:55;;;;;;;3.60;3.30;;;;;;;33.77;22.14;98308.00;5094005;28;20468;-79
2022/10/14 09:21:30;;;;;;;3.58;3.25;;;;;;;33.65;22.45;98308.34;5111562;28;20071;-79
2022/10/14 09:24:01;;;;;;;4.43;3.42;;;;;;;33.28;22.33;98317.28;5094175;28;20089;-79
2022/10/14 09:26:40;;;;;;;3.50;3.17;;;;;;;33.74;22.33;98319.63;5102615;28;20036;-79
2022/10/14 09:29:32;;;;;;;3.40;3.10;;;;;;;34.06;22.47;98313.66;5103490;28;20019;-80
2022/10/14 09:32:02;;;;;;;3.75;3.45;;;;;;;33.73;23.31;98318.03;5111096;28;20047;-82
2022/10/14 09:34:31;;;;;;;;;;;;;;;31.78;21.65;98321.94;5112471;28;20046;-80
2022/10/14 09:37:04;;;;;;;3.47;3.17;;;;;;;31.46;24.49;98321.94;5111310;28;20391;-80
2022/10/14 09:39:36;;;;;;;6.10;4.05;;;;;;;31.06;27.35;98320.16;5109418;28;20039;-79
2022/10/14 09:42:02;;;;;;;4.85;4.35;;;;;;;31.33;25.03;98320.06;5110422;28;20027;-79
2022/10/14 09:44:28;;;;;;;7.50;6.00;;;;;;;30.20;28.38;98320.75;5110626;28;20043;-80
2022/10/14 09:47:09;;;;;;;7.32;4.57;;;;;;;30.31;26.00;98318.25;5112748;28;20490;-81
2022/10/14 09:49:44;;;;;;;7.80;5.40;;;;;;;30.29;27.60;98318.72;5106875;28;20032;-80
2022/10/14 09:52:24;;;;;;;6.13;5.03;;;;;;;30.95;24.08;98305.66;5112623;28;20027;-79
2022/10/14 09:54:57;;;;;;;7.20;4.87;;;;;;;32.48;23.20;98305.41;5112671;28;20084;-79
2022/10/14 09:57:24;;;;;;;4.68;4.28;;;;;;;33.26;22.26;98302.78;5112468;28;20328;-81
2022/10/14 10:00:01;;;;;;;5.18;4.68;;;;;;;34.05;22.71;98305.59;5112700;28;20028;-79
2022/10/14 10:02:43;;;;;;;4.63;4.22;;;;;;;34.46;21.31;98306.38;5107660;28;20085;-81
2022/10/14 10:05:23;;;;;;;4.65;3.40;;;;;;;34.43;21.65;98298.81;5112262;28;20035;-83
2022/10/14 10:08:16;;;;;;;4.97;3.97;;;;;;;34.80;21.85;98299.03;5112418;28;20030;-80
2022/10/14 10:10:59;;;;;;;3.92;3.53;;;;;;;34.61;21.66;98301.41;5111610;28;20074;-81
2022/10/14 10:13:43;;;;;;;4.38;3.97;;;;;;;34.60;22.64;98300.63;5111988;28;20084;-81
2022/10/14 10:16:23;;;;;;;5.55;3.38;;;;;;;34.30;22.08;98307.75;5103005;28;20400;-80
2022/10/14 10:18:51;;;;;;;5.38;4.00;;;;;;;34.36;22.08;98299.25;5112394;28;20032;-81
2022/10/14 10:21:28;;;;;;;5.22;4.72;;;;;;;34.63;21.56;98299.63;5100673;28;20099;-79
2022/10/14 10:24:02;;;;;;;3.72;3.28;;;;;;;35.18;21.59;98299.44;5110912;28;20034;-79
2022/10/14 10:26:33;;;;;;;6.38;3.83;;;;;;;35.44;21.80;98299.38;5109504;28;20133;-81
2022/10/14 10:29:01;;;;;;;;;;;;;;;35.56;19.72;98306.78;5110276;28;20035;-80
2022/10/14 10:31:39;;;;;;;5.22;3.20;;;;;;;35.47;20.74;98301.25;5117553;28;19923;-82
2022/10/14 10:34:13;;;;;;;4.97;4.20;;;;;;;33.99;21.67;98299.00;5115619;28;20072;-83
2022/10/14 10:36:49;;;;;;;4.40;3.67;;;;;;;32.71;23.48;98302.53;5112374;28;20039;-82
2022/10/14 10:39:41;;;;;;;3.92;3.47;;;;;;;32.67;23.55;98298.31;5099979;28;20059;-81
2022/10/14 10:42:13;;;;;;;3.45;3.15;;;;;;;33.40;22.43;98290.59;5104218;28;20387;-82
2022/10/14 10:44:57;;;;;;;3.70;3.40;;;;;;;33.41;23.25;98297.06;5110817;28;20065;-79
2022/10/14 10:47:44;;;;;;;5.10;3.88;;;;;;;34.36;21.37;98290.69;5109456;28;20028;-82
2022/10/14 10:50:26;;;;;;;3.67;3.38;;;;;;;34.37;20.43;98284.50;5113478;28;20028;-82
2022/10/14 10:53:31;;;;;;;4.40;3.85;;;;;;;34.52;21.95;98278.69;5106084;28;20503;-81
2022/10/14 10:56:37;;;;;;;3.67;3.38;;;;;;;35.02;20.81;98276.44;5109957;28;20476;-81
2022/10/14 10:59:42;;;;;;;3.40;3.10;;;;;;;35.54;20.52;98277.16;5111233;28;20058;-82
2022/10/14 11:02:11;;;;;;;5.25;3.10;;;;;;;35.93;21.16;98281.03;5105844;28;20372;-82
2022/10/14 11:04:49;;;;;;;3.17;2.88;;;;;;;36.14;21.26;98281.69;5105252;28;20228;-83
2022/10/14 11:14:05;;;;;;;3.67;3.33;;;;;;;34.84;22.08;98271.84;5099391;28;20043;-83
2022/10/14 11:17:00;;;;;;;4.22;3.40;;;;;;;35.62;20.79;98272.53;5084450;28;20038;-81
2022/10/14 11:19:50;;;;;;;3.88;3.42;;;;;;;34.54;22.07;98268.38;5101847;28;20023;-81
2022/10/14 11:22:49;;;;;;;3.95;3.58;;;;;;;34.26;20.38;98263.63;5106879;28;20035;-81
2022/10/14 11:25:30;;;;;;;4.15;3.30;;;;;;;33.60;22.50;98263.47;5130561;27;20375;-81
2022/10/14 11:28:24;;;;;;;3.40;3.10;;;;;;;34.62;21.00;98263.81;5112549;28;20027;-81
2022/10/14 11:30:50;;;;;;;4.03;3.25;;;;;;;34.72;21.62;98256.69;5103808;28;20040;-82
2022/10/14 11:33:19;;;;;;;5.00;4.15;;;;;;;33.01;23.08;98257.84;5109809;28;20125;-82
2022/10/14 11:36:04;;;;;;;4.05;3.40;;;;;;;34.02;22.00;98250.34;5110044;28;20436;-82
2022/10/14 11:39:03;;;;;;;3.05;2.80;;;;;;;34.62;22.04;98245.91;5109358;28;20027;-81
2022/10/14 11:42:12;;;;;;;4.07;3.20;;;;;;;34.34;21.42;98251.28;5106211;28;20525;-82
2022/10/14 11:44:41;;;;;;;4.32;3.35;;;;;;;33.81;22.47;98250.84;5111144;28;20039;-81
2022/10/14 11:47:28;;;;;;;3.25;2.90;;;;;;;34.22;22.06;98258.13;5114144;28;20040;-81
2022/10/14 11:50:10;;;;;;;3.67;3.05;;;;;;;34.11;22.29;98243.75;5110351;28;20035;-81
2022/10/14 11:52:46;;;;;;;3.97;3.58;;;;;;;33.68;21.46;98253.25;5110273;28;20181;-81
2022/10/14 11:55:23;;;;;;;3.28;2.97;;;;;;;33.70;21.63;98253.53;5115210;28;20031;-81
2022/10/14 11:58:02;;;;;;;7.28;3.70;;;;;;;33.97;21.97;98244.56;5105208;28;20406;-81